sensor_id;sensor_type;location;lat;lon;timestamp;pressure;altitude;pressure_sealevel;temperature;humidity
25560;BME280;13450;49.374;8.584;2022-07-09T00:00:52;101632.38;;;16.76;78.12
25560;BME280;13450;49.374;8.584;2022-07-09T00:03:18;101635.03;;;16.69;76.58
25560;BME280;13450;49.374;8.584;2022-07-09T00:05:43;101632.28;;;16.62;74.68
25560;BME280;13450;49.374;8.584;2022-07-09T00:08:08;101625.38;;;16.53;76.22
25560;BME280;13450;49.374;8.584;2022-07-09T00:10:33;101631.38;;;16.48;73.93
25560;BME280;13450;49.374;8.584;2022-07-09T00:12:59;101630.09;;;16.44;79.25
25560;BME280;13450;49.374;8.584;2022-07-09T00:15:24;101631.31;;;16.41;73.22
25560;BME280;13450;49.374;8.584;2022-07-09T00:17:50;101630.84;;;16.38;77.16
25560;BME280;13450;49.374;8.584;2022-07-09T00:20:16;101628.81;;;16.40;76.86
25560;BME280;13450;49.374;8.584;2022-07-09T00:22:41;101628.16;;;16.38;79.42
25560;BME280;13450;49.374;8.584;2022-07-09T00:25:07;101623.59;;;16.38;75.99
25560;BME280;13450;49.374;8.584;2022-07-09T00:27:34;101621.75;;;16.39;79.78
25560;BME280;13450;49.374;8.584;2022-07-09T00:30:01;101616.59;;;16.44;78.17
25560;BME280;13450;49.374;8.584;2022-07-09T00:32:28;101612.84;;;16.45;75.70
25560;BME280;13450;49.374;8.584;2022-07-09T00:34:56;101618.25;;;16.45;77.60
25560;BME280;13450;49.374;8.584;2022-07-09T00:37:23;101608.09;;;16.47;81.68
25560;BME280;13450;49.374;8.584;2022-07-09T00:39:49;101608.09;;;16.47;76.77
25560;BME280;13450;49.374;8.584;2022-07-09T00:42:14;101603.69;;;16.46;77.71
25560;BME280;13450;49.374;8.584;2022-07-09T00:44:40;101611.00;;;16.45;80.21
25560;BME280;13450;49.374;8.584;2022-07-09T00:47:06;101610.38;;;16.50;80.92
25560;BME280;13450;49.374;8.584;2022-07-09T00:49:36;101604.34;;;16.48;74.98
25560;BME280;13450;49.374;8.584;2022-07-09T00:52:03;101614.25;;;16.41;78.13
25560;BME280;13450;49.374;8.584;2022-07-09T00:54:30;101602.13;;;16.30;81.79
25560;BME280;13450;49.374;8.584;2022-07-09T00:56:55;101609.06;;;16.17;80.34
25560;BME280;13450;49.374;8.584;2022-07-09T00:59:21;101603.56;;;16.04;80.31
25560;BME280;13450;49.374;8.584;2022-07-09T01:01:49;101601.53;;;15.91;84.99
25560;BME280;13450;49.374;8.584;2022-07-09T01:04:15;101604.63;;;15.88;83.72
25560;BME280;13450;49.374;8.584;2022-07-09T01:06:40;101598.25;;;15.74;82.31
25560;BME280;13450;49.374;8.584;2022-07-09T01:09:05;101597.41;;;15.73;84.81
25560;BME280;13450;49.374;8.584;2022-07-09T01:11:32;101592.44;;;15.70;79.07
25560;BME280;13450;49.374;8.584;2022-07-09T01:13:58;101590.47;;;15.64;79.07
25560;BME280;13450;49.374;8.584;2022-07-09T01:16:33;101588.63;;;15.64;82.50
25560;BME280;13450;49.374;8.584;2022-07-09T01:19:01;101595.22;;;15.62;80.17
25560;BME280;13450;49.374;8.584;2022-07-09T01:21:26;101588.16;;;15.61;83.07
25560;BME280;13450;49.374;8.584;2022-07-09T01:23:52;101595.59;;;15.59;80.58
25560;BME280;13450;49.374;8.584;2022-07-09T01:26:18;101590.22;;;15.59;86.42
25560;BME280;13450;49.374;8.584;2022-07-09T01:28:47;101585.19;;;15.55;83.42
25560;BME280;13450;49.374;8.584;2022-07-09T01:31:13;101576.47;;;15.53;82.58
25560;BME280;13450;49.374;8.584;2022-07-09T01:33:38;101577.09;;;15.55;84.61
25560;BME280;13450;49.374;8.584;2022-07-09T01:36:04;101576.47;;;15.53;80.29
25560;BME280;13450;49.374;8.584;2022-07-09T01:38:31;101575.63;;;15.53;85.45
25560;BME280;13450;49.374;8.584;2022-07-09T01:40:59;101574.13;;;15.50;79.61
25560;BME280;13450;49.374;8.584;2022-07-09T01:43:24;101575.53;;;15.46;82.37
25560;BME280;13450;49.374;8.584;2022-07-09T01:45:50;101571.56;;;15.42;80.42
25560;BME280;13450;49.374;8.584;2022-07-09T01:48:15;101576.94;;;15.42;85.40
25560;BME280;13450;49.374;8.584;2022-07-09T01:50:43;101570.56;;;15.43;84.20
25560;BME280;13450;49.374;8.584;2022-07-09T01:53:09;101563.47;;;15.42;80.07
25560;BME280;13450;49.374;8.584;2022-07-09T01:55:36;101570.91;;;15.40;81.53
25560;BME280;13450;49.374;8.584;2022-07-09T01:58:05;101570.06;;;15.39;86.15
25560;BME280;13450;49.374;8.584;2022-07-09T02:00:32;101570.91;;;15.40;83.72
25560;BME280;13450;49.374;8.584;2022-07-09T02:02:57;101563.19;;;15.37;79.11
25560;BME280;13450;49.374;8.584;2022-07-09T02:05:23;101564.22;;;15.36;82.25
25560;BME280;13450;49.374;8.584;2022-07-09T02:07:48;101562.16;;;15.38;80.65
25560;BME280;13450;49.374;8.584;2022-07-09T02:10:14;101567.13;;;15.34;80.95
25560;BME280;13450;49.374;8.584;2022-07-09T02:12:42;101562.94;;;15.32;84.35
25560;BME280;13450;49.374;8.584;2022-07-09T02:15:08;101564.34;;;15.27;85.96
25560;BME280;13450;49.374;8.584;2022-07-09T02:17:36;101566.66;;;15.30;87.17
25560;BME280;13450;49.374;8.584;2022-07-09T02:20:01;101562.94;;;15.32;88.16
25560;BME280;13450;49.374;8.584;2022-07-09T02:22:29;101566.25;;;15.34;88.70
25560;BME280;13450;49.374;8.584;2022-07-09T02:24:54;101562.69;;;15.26;83.71
25560;BME280;13450;49.374;8.584;2022-07-09T02:27:19;101557.84;;;15.22;84.77
25560;BME280;13450;49.374;8.584;2022-07-09T02:29:45;101557.66;;;15.23;86.85
25560;BME280;13450;49.374;8.584;2022-07-09T02:32:10;101562.16;;;15.16;87.34
25560;BME280;13450;49.374;8.584;2022-07-09T02:34:37;101566.41;;;15.10;85.26
25560;BME280;13450;49.374;8.584;2022-07-09T02:37:04;101563.25;;;15.07;85.60
25560;BME280;13450;49.374;8.584;2022-07-09T02:39:29;101566.69;;;15.00;87.26
25560;BME280;13450;49.374;8.584;2022-07-09T02:41:55;101569.56;;;14.99;89.76
25560;BME280;13450;49.374;8.584;2022-07-09T02:44:20;101573.03;;;14.93;89.74
25560;BME280;13450;49.374;8.584;2022-07-09T02:46:45;101562.81;;;14.88;90.37
25560;BME280;13450;49.374;8.584;2022-07-09T02:49:11;101566.53;;;14.87;89.59
25560;BME280;13450;49.374;8.584;2022-07-09T02:51:38;101578.16;;;14.87;91.88
25560;BME280;13450;49.374;8.584;2022-07-09T02:54:04;101574.34;;;14.82;90.07
25560;BME280;13450;49.374;8.584;2022-07-09T02:56:30;101572.19;;;14.77;91.75
25560;BME280;13450;49.374;8.584;2022-07-09T02:58:55;101566.31;;;14.73;90.19
25560;BME280;13450;49.374;8.584;2022-07-09T03:01:20;101567.50;;;14.71;89.94
25560;BME280;13450;49.374;8.584;2022-07-09T03:03:45;101567.88;;;14.68;91.02
25560;BME280;13450;49.374;8.584;2022-07-09T03:06:11;101568.53;;;14.70;90.75
25560;BME280;13450;49.374;8.584;2022-07-09T03:08:37;101575.78;;;14.69;87.88
25560;BME280;13450;49.374;8.584;2022-07-09T03:11:06;101568.53;;;14.70;88.24
25560;BME280;13450;49.374;8.584;2022-07-09T03:13:35;101576.22;;;14.73;87.13
25560;BME280;13450;49.374;8.584;2022-07-09T03:16:01;101572.44;;;14.67;90.84
25560;BME280;13450;49.374;8.584;2022-07-09T03:18:26;101569.25;;;14.63;91.73
25560;BME280;13450;49.374;8.584;2022-07-09T03:20:51;101573.56;;;14.58;90.77
25560;BME280;13450;49.374;8.584;2022-07-09T03:23:16;101567.69;;;14.54;91.65
25560;BME280;13450;49.374;8.584;2022-07-09T03:25:45;101561.84;;;14.50;90.83
25560;BME280;13450;49.374;8.584;2022-07-09T03:28:10;101564.72;;;14.49;90.76
25560;BME280;13450;49.374;8.584;2022-07-09T03:30:54;101557.66;;;14.48;92.37
25560;BME280;13450;49.374;8.584;2022-07-09T03:33:38;101557.66;;;14.48;88.28
25560;BME280;13450;49.374;8.584;2022-07-09T03:36:21;101565.72;;;14.48;92.26
25560;BME280;13450;49.374;8.584;2022-07-09T03:39:05;101565.28;;;14.44;91.72
25560;BME280;13450;49.374;8.584;2022-07-09T03:41:49;101558.75;;;14.38;93.14
25560;BME280;13450;49.374;8.584;2022-07-09T03:44:33;101569.06;;;14.35;95.33
25560;BME280;13450;49.374;8.584;2022-07-09T03:47:17;101566.06;;;14.30;98.65
25560;BME280;13450;49.374;8.584;2022-07-09T03:50:01;101565.50;;;14.19;95.53
25560;BME280;13450;49.374;8.584;2022-07-09T03:52:45;101559.63;;;14.16;100.00
25560;BME280;13450;49.374;8.584;2022-07-09T03:55:29;101561.19;;;14.10;100.00
25560;BME280;13450;49.374;8.584;2022-07-09T03:58:13;101572.50;;;14.05;100.00
25560;BME280;13450;49.374;8.584;2022-07-09T04:00:57;101564.25;;;14.07;96.40
25560;BME280;13450;49.374;8.584;2022-07-09T04:03:41;101566.94;;;14.07;95.34
25560;BME280;13450;49.374;8.584;2022-07-09T04:06:25;101568.63;;;14.08;95.82
25560;BME280;13450;49.374;8.584;2022-07-09T04:09:09;101574.31;;;14.13;96.90
25560;BME280;13450;49.374;8.584;2022-07-09T04:11:52;101571.63;;;14.13;96.07
25560;BME280;13450;49.374;8.584;2022-07-09T04:14:37;101570.66;;;14.06;100.00
25560;BME280;13450;49.374;8.584;2022-07-09T04:17:20;101575.06;;;13.98;98.51
25560;BME280;13450;49.374;8.584;2022-07-09T04:20:05;101570.41;;;13.92;99.19
25560;BME280;13450;49.374;8.584;2022-07-09T04:22:49;101571.97;;;13.86;100.00
25560;BME280;13450;49.374;8.584;2022-07-09T04:25:33;101573.16;;;13.84;99.25
25560;BME280;13450;49.374;8.584;2022-07-09T04:28:17;101573.16;;;13.84;95.14
25560;BME280;13450;49.374;8.584;2022-07-09T04:31:02;101579.88;;;13.88;100.00
25560;BME280;13450;49.374;8.584;2022-07-09T04:33:27;101583.56;;;13.87;100.00
25560;BME280;13450;49.374;8.584;2022-07-09T04:35:52;101585.25;;;13.88;100.00
25560;BME280;13450;49.374;8.584;2022-07-09T04:38:18;101580.72;;;13.89;100.00
25560;BME280;13450;49.374;8.584;2022-07-09T04:40:45;101579.34;;;13.93;100.00
25560;BME280;13450;49.374;8.584;2022-07-09T04:43:10;101584.47;;;14.03;100.00
25560;BME280;13450;49.374;8.584;2022-07-09T04:45:36;101582.25;;;14.06;100.00
25560;BME280;13450;49.374;8.584;2022-07-09T04:48:01;101575.00;;;14.07;100.00
25560;BME280;13450;49.374;8.584;2022-07-09T04:50:27;101583.09;;;14.07;100.00
25560;BME280;13450;49.374;8.584;2022-07-09T04:52:52;101584.78;;;14.08;100.00
25560;BME280;13450;49.374;8.584;2022-07-09T04:55:20;101582.44;;;14.05;100.00
25560;BME280;13450;49.374;8.584;2022-07-09T04:57:46;101577.06;;;14.05;100.00
25560;BME280;13450;49.374;8.584;2022-07-09T05:00:12;101581.75;;;14.03;100.00
25560;BME280;13450;49.374;8.584;2022-07-09T05:02:42;101581.41;;;14.06;100.00
25560;BME280;13450;49.374;8.584;2022-07-09T05:05:08;101581.72;;;14.11;100.00
25560;BME280;13450;49.374;8.584;2022-07-09T05:07:34;101587.03;;;14.19;100.00
25560;BME280;13450;49.374;8.584;2022-07-09T05:10:00;101581.41;;;14.29;99.84
25560;BME280;13450;49.374;8.584;2022-07-09T05:12:27;101583.28;;;14.44;100.00
25560;BME280;13450;49.374;8.584;2022-07-09T05:14:52;101579.75;;;14.58;96.65
25560;BME280;13450;49.374;8.584;2022-07-09T05:17:17;101579.13;;;14.71;100.00
25560;BME280;13450;49.374;8.584;2022-07-09T05:19:43;101573.97;;;14.85;100.00
25560;BME280;13450;49.374;8.584;2022-07-09T05:22:08;101569.13;;;14.95;100.00
25560;BME280;13450;49.374;8.584;2022-07-09T05:24:34;101573.75;;;15.01;99.12
25560;BME280;13450;49.374;8.584;2022-07-09T05:27:01;101567.81;;;15.06;100.00
25560;BME280;13450;49.374;8.584;2022-07-09T05:29:27;101569.03;;;15.19;99.64
25560;BME280;13450;49.374;8.584;2022-07-09T05:31:55;101570.75;;;15.26;99.69
25560;BME280;13450;49.374;8.584;2022-07-09T05:34:25;101569.25;;;15.39;99.06
25560;BME280;13450;49.374;8.584;2022-07-09T05:36:50;101570.03;;;15.54;98.00
25560;BME280;13450;49.374;8.584;2022-07-09T05:39:20;101568.88;;;15.64;97.92
25560;BME280;13450;49.374;8.584;2022-07-09T05:41:45;101571.47;;;15.72;97.96
25560;BME280;13450;49.374;8.584;2022-07-09T05:44:10;101569.28;;;15.82;99.09
25560;BME280;13450;49.374;8.584;2022-07-09T05:46:36;101574.31;;;15.86;97.65
25560;BME280;13450;49.374;8.584;2022-07-09T05:49:02;101572.78;;;15.98;98.49
25560;BME280;13450;49.374;8.584;2022-07-09T05:51:28;101573.91;;;16.11;98.96
25560;BME280;13450;49.374;8.584;2022-07-09T05:53:53;101575.41;;;16.13;96.06
25560;BME280;13450;49.374;8.584;2022-07-09T05:56:18;101566.53;;;16.19;93.96
25560;BME280;13450;49.374;8.584;2022-07-09T05:58:44;101572.16;;;16.25;95.59
25560;BME280;13450;49.374;8.584;2022-07-09T06:01:09;101572.41;;;16.30;95.00
25560;BME280;13450;49.374;8.584;2022-07-09T06:03:39;101571.84;;;16.34;96.14
25560;BME280;13450;49.374;8.584;2022-07-09T06:06:05;101574.41;;;16.43;93.86
25560;BME280;13450;49.374;8.584;2022-07-09T06:08:30;101567.16;;;16.50;93.00
25560;BME280;13450;49.374;8.584;2022-07-09T06:10:57;101568.47;;;16.61;92.47
25560;BME280;13450;49.374;8.584;2022-07-09T06:13:22;101564.78;;;16.69;90.18
25560;BME280;13450;49.374;8.584;2022-07-09T06:15:47;101562.97;;;16.76;91.35
25560;BME280;13450;49.374;8.584;2022-07-09T06:18:13;101563.00;;;16.83;88.40
25560;BME280;13450;49.374;8.584;2022-07-09T06:20:38;101566.78;;;16.89;89.82
25560;BME280;13450;49.374;8.584;2022-07-09T06:23:04;101564.50;;;16.92;89.00
25560;BME280;13450;49.374;8.584;2022-07-09T06:25:29;101562.47;;;17.01;88.37
25560;BME280;13450;49.374;8.584;2022-07-09T06:27:57;101562.97;;;17.11;91.89
25560;BME280;13450;49.374;8.584;2022-07-09T06:30:25;101564.28;;;17.29;88.71
25560;BME280;13450;49.374;8.584;2022-07-09T06:32:51;101560.75;;;17.35;90.41
25560;BME280;13450;49.374;8.584;2022-07-09T06:35:17;101558.72;;;17.44;87.64
25560;BME280;13450;49.374;8.584;2022-07-09T06:37:42;101558.50;;;17.52;86.35
25560;BME280;13450;49.374;8.584;2022-07-09T06:40:10;101559.75;;;17.63;82.85
25560;BME280;13450;49.374;8.584;2022-07-09T06:42:36;101557.53;;;17.74;86.16
25560;BME280;13450;49.374;8.584;2022-07-09T06:45:01;101565.00;;;17.85;85.63
25560;BME280;13450;49.374;8.584;2022-07-09T06:47:26;101550.88;;;17.90;84.57
25560;BME280;13450;49.374;8.584;2022-07-09T06:49:52;101567.13;;;17.97;84.78
25560;BME280;13450;49.374;8.584;2022-07-09T06:52:17;101565.47;;;18.02;82.07
25560;BME280;13450;49.374;8.584;2022-07-09T06:54:42;101563.81;;;18.15;83.99
25560;BME280;13450;49.374;8.584;2022-07-09T06:57:11;101565.50;;;18.29;83.16
25560;BME280;13450;49.374;8.584;2022-07-09T06:59:36;101563.78;;;18.42;79.18
25560;BME280;13450;49.374;8.584;2022-07-09T07:02:04;101570.66;;;18.51;80.50
25560;BME280;13450;49.374;8.584;2022-07-09T07:04:30;101572.34;;;18.52;79.88
25560;BME280;13450;49.374;8.584;2022-07-09T07:06:57;101575.44;;;18.63;80.24
25560;BME280;13450;49.374;8.584;2022-07-09T07:09:23;101570.00;;;18.69;77.30
25560;BME280;13450;49.374;8.584;2022-07-09T07:11:49;101568.72;;;18.79;78.09
25560;BME280;13450;49.374;8.584;2022-07-09T07:14:15;101568.69;;;18.92;77.03
25560;BME280;13450;49.374;8.584;2022-07-09T07:16:43;101573.25;;;19.05;73.19
25560;BME280;13450;49.374;8.584;2022-07-09T07:19:09;101572.78;;;19.15;76.39
25560;BME280;13450;49.374;8.584;2022-07-09T07:21:35;101570.63;;;19.31;76.16
25560;BME280;13450;49.374;8.584;2022-07-09T07:24:01;101572.06;;;19.40;74.96
25560;BME280;13450;49.374;8.584;2022-07-09T07:26:26;101572.19;;;19.52;74.95
25560;BME280;13450;49.374;8.584;2022-07-09T07:28:54;101570.88;;;19.62;71.75
25560;BME280;13450;49.374;8.584;2022-07-09T07:31:19;101570.88;;;19.62;72.97
25560;BME280;13450;49.374;8.584;2022-07-09T07:33:44;101563.81;;;19.60;75.92
25560;BME280;13450;49.374;8.584;2022-07-09T07:36:10;101568.72;;;19.70;74.00
25560;BME280;13450;49.374;8.584;2022-07-09T07:38:35;101563.25;;;19.77;73.05
25560;BME280;13450;49.374;8.584;2022-07-09T07:41:01;101562.34;;;19.90;73.21
25560;BME280;13450;49.374;8.584;2022-07-09T07:43:26;101562.69;;;20.01;71.90
25560;BME280;13450;49.374;8.584;2022-07-09T07:45:51;101557.44;;;20.06;68.81
25560;BME280;13450;49.374;8.584;2022-07-09T07:48:16;101568.63;;;20.16;70.16
25560;BME280;13450;49.374;8.584;2022-07-09T07:50:42;101559.97;;;20.26;67.66
25560;BME280;13450;49.374;8.584;2022-07-09T07:53:07;101557.19;;;20.33;67.63
25560;BME280;13450;49.374;8.584;2022-07-09T07:55:33;101556.56;;;20.56;68.47
25560;BME280;13450;49.374;8.584;2022-07-09T07:57:58;101559.06;;;20.58;66.64
25560;BME280;13450;49.374;8.584;2022-07-09T08:00:24;101551.19;;;20.68;67.40
25560;BME280;13450;49.374;8.584;2022-07-09T08:02:49;101556.94;;;20.78;66.69
25560;BME280;13450;49.374;8.584;2022-07-09T08:05:15;101548.06;;;20.90;65.57
25560;BME280;13450;49.374;8.584;2022-07-09T08:07:40;101551.41;;;21.04;64.51
25560;BME280;13450;49.374;8.584;2022-07-09T08:10:05;101551.50;;;21.16;64.07
25560;BME280;13450;49.374;8.584;2022-07-09T08:12:31;101549.63;;;21.28;63.68
25560;BME280;13450;49.374;8.584;2022-07-09T08:14:56;101549.31;;;21.37;62.76
25560;BME280;13450;49.374;8.584;2022-07-09T08:17:22;101545.06;;;21.41;62.37
25560;BME280;13450;49.374;8.584;2022-07-09T08:19:47;101545.72;;;21.55;61.28
25560;BME280;13450;49.374;8.584;2022-07-09T08:22:13;101548.09;;;21.63;61.51
25560;BME280;13450;49.374;8.584;2022-07-09T08:24:38;101546.94;;;21.71;60.93
25560;BME280;13450;49.374;8.584;2022-07-09T08:27:06;101545.66;;;21.74;60.20
25560;BME280;13450;49.374;8.584;2022-07-09T08:29:31;101545.47;;;21.87;59.76
25560;BME280;13450;49.374;8.584;2022-07-09T08:31:56;101534.91;;;21.91;60.02
25560;BME280;13450;49.374;8.584;2022-07-09T08:34:22;101530.31;;;21.91;59.60
25560;BME280;13450;49.374;8.584;2022-07-09T08:36:47;101529.25;;;22.04;59.35
25560;BME280;13450;49.374;8.584;2022-07-09T08:39:12;101521.06;;;22.16;59.34
25560;BME280;13450;49.374;8.584;2022-07-09T08:41:38;101521.44;;;22.32;58.29
25560;BME280;13450;49.374;8.584;2022-07-09T08:44:04;101520.34;;;22.33;58.42
25560;BME280;13450;49.374;8.584;2022-07-09T08:46:38;101519.16;;;22.41;59.06
25560;BME280;13450;49.374;8.584;2022-07-09T08:49:08;101513.13;;;22.39;58.38
25560;BME280;13450;49.374;8.584;2022-07-09T08:51:35;101514.19;;;22.62;56.50
25560;BME280;13450;49.374;8.584;2022-07-09T08:54:03;101520.81;;;22.66;55.87
25560;BME280;13450;49.374;8.584;2022-07-09T08:56:31;101515.00;;;22.74;55.75
25560;BME280;13450;49.374;8.584;2022-07-09T08:58:56;101501.94;;;22.76;56.06
25560;BME280;13450;49.374;8.584;2022-07-09T09:01:22;101497.69;;;22.97;55.02
25560;BME280;13450;49.374;8.584;2022-07-09T09:03:47;101500.13;;;23.11;54.52
25560;BME280;13450;49.374;8.584;2022-07-09T09:06:23;101501.31;;;23.32;54.10
25560;BME280;13450;49.374;8.584;2022-07-09T09:08:53;101495.00;;;23.44;53.67
25560;BME280;13450;49.374;8.584;2022-07-09T09:11:25;101489.38;;;23.50;52.82
25560;BME280;13450;49.374;8.584;2022-07-09T09:13:52;101497.50;;;23.62;52.64
25560;BME280;13450;49.374;8.584;2022-07-09T09:16:19;101499.16;;;23.63;52.03
25560;BME280;13450;49.374;8.584;2022-07-09T09:18:49;101492.72;;;23.70;52.45
25560;BME280;13450;49.374;8.584;2022-07-09T09:21:16;101490.06;;;23.75;51.47
25560;BME280;13450;49.374;8.584;2022-07-09T09:23:49;101499.81;;;23.88;50.19
25560;BME280;13450;49.374;8.584;2022-07-09T09:26:22;101484.66;;;23.80;49.03
25560;BME280;13450;49.374;8.584;2022-07-09T09:28:56;101477.06;;;23.82;48.83
25560;BME280;13450;49.374;8.584;2022-07-09T09:31:33;101476.63;;;23.90;49.06
25560;BME280;13450;49.374;8.584;2022-07-09T09:34:15;101485.41;;;23.93;47.83
25560;BME280;13450;49.374;8.584;2022-07-09T09:36:44;101481.34;;;23.95;47.66
25560;BME280;13450;49.374;8.584;2022-07-09T09:39:11;101480.50;;;23.95;48.02
25560;BME280;13450;49.374;8.584;2022-07-09T09:41:38;101481.25;;;24.07;48.34
25560;BME280;13450;49.374;8.584;2022-07-09T09:44:08;101477.03;;;24.16;47.56
25560;BME280;13450;49.374;8.584;2022-07-09T09:46:38;101473.31;;;24.45;46.74
25560;BME280;13450;49.374;8.584;2022-07-09T09:49:05;101470.94;;;24.54;46.76
25560;BME280;13450;49.374;8.584;2022-07-09T09:51:40;101464.41;;;24.55;46.43
25560;BME280;13450;49.374;8.584;2022-07-09T09:54:10;101472.22;;;24.68;46.41
25560;BME280;13450;49.374;8.584;2022-07-09T09:56:39;101469.31;;;25.03;45.19
25560;BME280;13450;49.374;8.584;2022-07-09T09:59:04;101462.41;;;25.23;44.79
25560;BME280;13450;49.374;8.584;2022-07-09T10:01:30;101463.56;;;25.32;45.55
25560;BME280;13450;49.374;8.584;2022-07-09T10:03:56;101468.41;;;25.52;45.19
25560;BME280;13450;49.374;8.584;2022-07-09T10:06:22;101459.31;;;25.79;44.26
25560;BME280;13450;49.374;8.584;2022-07-09T10:08:47;101462.19;;;26.05;43.69
25560;BME280;13450;49.374;8.584;2022-07-09T10:11:13;101456.22;;;25.70;44.25
25560;BME280;13450;49.374;8.584;2022-07-09T10:13:50;101475.22;;;25.50;44.41
25560;BME280;13450;49.374;8.584;2022-07-09T10:16:15;101473.88;;;25.19;45.07
25560;BME280;13450;49.374;8.584;2022-07-09T10:18:53;101471.66;;;24.89;45.89
25560;BME280;13450;49.374;8.584;2022-07-09T10:21:39;101462.34;;;24.67;46.74
25560;BME280;13450;49.374;8.584;2022-07-09T10:24:07;101466.81;;;24.51;47.53
25560;BME280;13450;49.374;8.584;2022-07-09T10:29:24;101474.47;;;24.10;48.75
25560;BME280;13450;49.374;8.584;2022-07-09T10:31:50;101466.59;;;24.13;nan
25560;BME280;13450;49.374;8.584;2022-07-09T10:34:36;101465.34;;;24.04;48.47
25560;BME280;13450;49.374;8.584;2022-07-09T10:37:04;101469.97;;;24.21;48.82
25560;BME280;13450;49.374;8.584;2022-07-09T10:39:31;101463.56;;;24.54;47.97
25560;BME280;13450;49.374;8.584;2022-07-09T10:44:36;101452.84;;;25.25;46.13
25560;BME280;13450;49.374;8.584;2022-07-09T10:47:06;101452.81;;;25.96;44.91
25560;BME280;13450;49.374;8.584;2022-07-09T10:49:35;101443.75;;;26.44;42.30
25560;BME280;13450;49.374;8.584;2022-07-09T10:52:02;101441.56;;;26.46;42.26
25560;BME280;13450;49.374;8.584;2022-07-09T10:54:28;101437.25;;;26.71;42.68
25560;BME280;13450;49.374;8.584;2022-07-09T10:56:54;101440.84;;;26.82;41.84
25560;BME280;13450;49.374;8.584;2022-07-09T10:59:21;101426.84;;;26.83;41.48
25560;BME280;13450;49.374;8.584;2022-07-09T11:01:46;101434.03;;;26.95;40.93
25560;BME280;13450;49.374;8.584;2022-07-09T11:04:25;101442.03;;;27.12;39.71
25560;BME280;13450;49.374;8.584;2022-07-09T11:06:53;101428.00;;;27.39;39.43
25560;BME280;13450;49.374;8.584;2022-07-09T11:09:19;101429.59;;;27.77;39.64
25560;BME280;13450;49.374;8.584;2022-07-09T11:11:45;101424.59;;;28.10;38.25
25560;BME280;13450;49.374;8.584;2022-07-09T11:14:10;101420.41;;;28.18;37.74
25560;BME280;13450;49.374;8.584;2022-07-09T11:16:36;101421.88;;;29.06;37.76
25560;BME280;13450;49.374;8.584;2022-07-09T11:19:17;101413.84;;;29.74;36.13
25560;BME280;13450;49.374;8.584;2022-07-09T11:21:43;101393.66;;;30.66;34.17
25560;BME280;13450;49.374;8.584;2022-07-09T11:24:13;101404.72;;;31.18;34.46
25560;BME280;13450;49.374;8.584;2022-07-09T11:26:42;101403.75;;;31.42;33.92
25560;BME280;13450;49.374;8.584;2022-07-09T11:29:07;101403.78;;;30.51;33.56
25560;BME280;13450;49.374;8.584;2022-07-09T11:31:34;101405.72;;;29.58;34.39
25560;BME280;13450;49.374;8.584;2022-07-09T11:34:03;101397.75;;;29.57;36.31
25560;BME280;13450;49.374;8.584;2022-07-09T11:36:42;101403.94;;;30.60;33.58
25560;BME280;13450;49.374;8.584;2022-07-09T11:39:08;101391.91;;;30.70;32.55
25560;BME280;13450;49.374;8.584;2022-07-09T11:41:43;101385.06;;;30.05;34.39
25560;BME280;13450;49.374;8.584;2022-07-09T11:44:09;101387.69;;;30.78;33.43
25560;BME280;13450;49.374;8.584;2022-07-09T11:46:35;101390.13;;;33.36;29.72
25560;BME280;13450;49.374;8.584;2022-07-09T11:49:02;101378.34;;;34.29;28.08
25560;BME280;13450;49.374;8.584;2022-07-09T11:51:30;101377.09;;;32.45;29.84
25560;BME280;13450;49.374;8.584;2022-07-09T11:53:56;101378.72;;;33.46;29.39
25560;BME280;13450;49.374;8.584;2022-07-09T11:56:21;101378.66;;;34.45;27.81
25560;BME280;13450;49.374;8.584;2022-07-09T11:58:50;101375.88;;;35.46;25.48
25560;BME280;13450;49.374;8.584;2022-07-09T12:01:15;101375.19;;;35.01;26.06
25560;BME280;13450;49.374;8.584;2022-07-09T12:03:47;101373.63;;;34.29;27.55
25560;BME280;13450;49.374;8.584;2022-07-09T12:06:12;101373.91;;;32.74;30.18
25560;BME280;13450;49.374;8.584;2022-07-09T12:08:42;101369.78;;;31.70;30.78
25560;BME280;13450;49.374;8.584;2022-07-09T12:11:07;101366.19;;;30.75;32.15
25560;BME280;13450;49.374;8.584;2022-07-09T12:13:33;101363.97;;;31.24;31.94
25560;BME280;13450;49.374;8.584;2022-07-09T12:15:58;101351.94;;;31.62;32.69
25560;BME280;13450;49.374;8.584;2022-07-09T12:18:24;101345.19;;;31.82;30.91
25560;BME280;13450;49.374;8.584;2022-07-09T12:20:49;101339.91;;;32.83;29.70
25560;BME280;13450;49.374;8.584;2022-07-09T12:23:21;101344.59;;;35.01;26.61
25560;BME280;13450;49.374;8.584;2022-07-09T12:25:47;101341.38;;;35.47;26.15
25560;BME280;13450;49.374;8.584;2022-07-09T12:28:14;101350.25;;;37.23;24.03
25560;BME280;13450;49.374;8.584;2022-07-09T12:30:40;101342.00;;;37.39;24.24
25560;BME280;13450;49.374;8.584;2022-07-09T12:33:07;101340.41;;;38.58;22.20
25560;BME280;13450;49.374;8.584;2022-07-09T12:35:35;101332.16;;;39.26;21.60
25560;BME280;13450;49.374;8.584;2022-07-09T12:38:00;101329.78;;;38.96;21.67
25560;BME280;13450;49.374;8.584;2022-07-09T12:40:26;101329.66;;;38.31;21.73
25560;BME280;13450;49.374;8.584;2022-07-09T12:42:52;101319.63;;;38.14;21.72
25560;BME280;13450;49.374;8.584;2022-07-09T12:45:20;101317.19;;;36.88;22.78
25560;BME280;13450;49.374;8.584;2022-07-09T12:47:47;101303.53;;;37.58;23.88
25560;BME280;13450;49.374;8.584;2022-07-09T12:50:13;101310.63;;;35.73;24.56
25560;BME280;13450;49.374;8.584;2022-07-09T12:52:38;101305.16;;;35.56;24.66
25560;BME280;13450;49.374;8.584;2022-07-09T12:55:07;101305.13;;;34.51;25.51
25560;BME280;13450;49.374;8.584;2022-07-09T12:57:35;101307.94;;;33.40;27.12
25560;BME280;13450;49.374;8.584;2022-07-09T13:00:02;101310.28;;;32.23;28.84